createdAt,value
2023-03-28T00:01:01.596Z,102760.72
2023-03-28T00:03:29.488Z,102754.63
2023-03-28T00:06:02.280Z,102762.69
2023-03-28T00:08:29.506Z,102770.84
2023-03-28T00:11:12.514Z,102770.97
2023-03-28T00:13:39.097Z,102767.41
2023-03-28T00:16:08.977Z,102769.25
2023-03-28T00:18:39.155Z,102767.53
2023-03-28T00:21:29.226Z,102774.97
2023-03-28T00:24:01.995Z,102774.84
2023-03-28T00:26:32.370Z,102778.50
2023-03-28T00:29:01.381Z,102783.03
2023-03-28T00:31:28.447Z,102783.09
2023-03-28T00:33:55.687Z,102783.09
2023-03-28T00:36:26.400Z,102776.03
2023-03-28T00:38:53.938Z,102778.72
2023-03-28T00:41:22.441Z,102776.16
2023-03-28T00:43:52.726Z,102777.09
2023-03-28T00:46:29.914Z,102781.63
2023-03-28T00:49:05.833Z,102785.28
2023-03-28T00:51:37.382Z,102781.75
2023-03-28T00:54:05.101Z,102774.66
2023-03-28T00:56:36.935Z,102777.41
2023-03-28T00:59:08.012Z,102775.56
2023-03-28T01:01:35.524Z,102775.69
2023-03-28T01:04:03.194Z,102773.97
2023-03-28T01:06:37.779Z,102774.06
2023-03-28T01:09:08.048Z,102768.81
2023-03-28T01:11:39.245Z,102766.25
2023-03-28T01:14:07.880Z,102760.13
2023-03-28T01:16:42.143Z,102762.94
2023-03-28T01:20:09.397Z,102757.00
2023-03-28T01:23:09.708Z,102749.84
2023-03-28T01:25:50.581Z,102748.09
2023-03-28T01:28:56.307Z,102752.75
2023-03-28T01:31:46.406Z,102746.81
2023-03-28T01:34:34.877Z,102744.44
2023-03-28T01:37:07.402Z,102736.72
2023-03-28T01:40:07.894Z,102738.84
2023-03-28T01:43:06.210Z,102729.25
2023-03-28T01:45:44.882Z,102734.03
2023-03-28T01:48:33.290Z,102736.38
2023-03-28T01:51:10.833Z,102740.78
2023-03-28T01:53:55.914Z,102737.72
2023-03-28T01:56:37.449Z,102729.47
2023-03-28T01:59:20.453Z,102730.53
2023-03-28T02:02:35.392Z,102739.47
2023-03-28T02:05:05.621Z,102733.13
2023-03-28T02:07:33.847Z,102727.84
2023-03-28T02:10:03.979Z,102735.91
2023-03-28T02:12:36.759Z,102736.03
2023-03-28T02:15:06.909Z,102739.69
2023-03-28T02:17:38.286Z,102733.56
2023-03-28T02:20:11.699Z,102736.50
2023-03-28T02:22:47.174Z,102733.91
2023-03-28T02:25:14.243Z,102730.34
2023-03-28T02:27:43.069Z,102735.00
2023-03-28T02:30:10.137Z,102728.00
2023-03-28T02:32:36.750Z,102721.00
2023-03-28T02:35:05.798Z,102734.66
2023-03-28T02:38:07.787Z,102735.84
2023-03-28T02:40:49.262Z,102734.25
2023-03-28T02:43:27.742Z,102737.03
2023-03-28T02:46:18.291Z,102734.59
2023-03-28T02:48:52.272Z,102737.38
2023-03-28T02:51:40.470Z,102725.97
2023-03-28T02:54:34.768Z,102737.69
2023-03-28T02:57:18.783Z,102736.00
2023-03-28T03:00:19.151Z,102729.25
2023-03-28T03:02:49.438Z,102730.09
2023-03-28T03:05:17.639Z,102727.50
2023-03-28T03:07:44.238Z,102721.41
2023-03-28T03:10:12.111Z,102725.59
2023-03-28T03:12:39.130Z,102725.97
2023-03-28T03:15:07.251Z,102718.22
2023-03-28T03:17:33.789Z,102728.31
2023-03-28T03:20:06.605Z,102729.38
2023-03-28T03:22:34.437Z,102724.31
2023-03-28T03:25:08.159Z,102724.72
2023-03-28T03:27:36.838Z,102728.75
2023-03-28T03:30:04.799Z,102718.03
2023-03-28T03:32:31.694Z,102716.31
2023-03-28T03:34:58.566Z,102715.91
2023-03-28T03:37:25.085Z,102712.41
2023-03-28T03:39:51.582Z,102717.56
2023-03-28T03:42:18.078Z,102719.63
2023-03-28T03:44:44.575Z,102717.78
2023-03-28T03:47:11.112Z,102717.91
2023-03-28T03:49:38.101Z,102709.09
2023-03-28T03:52:04.798Z,102724.34
2023-03-28T03:54:31.356Z,102711.91
2023-03-28T03:56:57.932Z,102713.75
2023-03-28T03:59:24.667Z,102709.31
2023-03-28T04:01:51.403Z,102718.34
2023-03-28T04:04:17.971Z,102717.50
2023-03-28T04:06:44.590Z,102714.94
2023-03-28T04:09:11.458Z,102704.28
2023-03-28T04:11:37.957Z,102714.38
2023-03-28T04:14:04.720Z,102713.66
2023-03-28T04:16:40.787Z,102720.09
2023-03-28T04:19:08.241Z,102719.38
2023-03-28T04:21:35.278Z,102707.00
2023-03-28T04:24:01.943Z,102716.88
2023-03-28T04:26:29.636Z,102714.41
2023-03-28T04:28:57.213Z,102711.00
2023-03-28T04:31:28.900Z,102712.84
2023-03-28T04:33:56.277Z,102713.03
2023-03-28T04:36:25.714Z,102714.97
2023-03-28T04:38:52.578Z,102708.88
2023-03-28T04:41:19.173Z,102707.25
2023-03-28T04:43:45.765Z,102704.69
2023-03-28T04:46:12.274Z,102708.44
2023-03-28T04:48:38.838Z,102707.69
2023-03-28T04:51:05.862Z,102707.78
2023-03-28T04:53:32.549Z,102707.06
2023-03-28T04:56:00.158Z,102710.69
2023-03-28T04:58:26.913Z,102697.38
2023-03-28T05:00:54.135Z,102710.91
2023-03-28T05:03:23.066Z,102713.50
2023-03-28T05:05:52.622Z,102727.03
2023-03-28T05:08:22.569Z,102727.75
2023-03-28T05:10:50.509Z,102721.13
2023-03-28T05:13:17.460Z,102718.84
2023-03-28T05:15:46.633Z,102721.75
2023-03-28T05:18:13.206Z,102720.31
2023-03-28T05:20:39.785Z,102726.97
2023-03-28T05:23:06.539Z,102727.38
2023-03-28T05:25:33.782Z,102721.69
2023-03-28T05:28:01.425Z,102718.78
2023-03-28T05:30:28.061Z,102712.53
2023-03-28T05:32:54.785Z,102717.50
2023-03-28T05:35:21.428Z,102721.19
2023-03-28T05:37:47.942Z,102719.69
2023-03-28T05:40:15.437Z,102735.81
2023-03-28T05:42:42.733Z,102728.69
2023-03-28T05:45:11.470Z,102734.91
2023-03-28T05:47:38.148Z,102733.97
2023-03-28T05:50:05.341Z,102742.03
2023-03-28T05:52:31.841Z,102740.19
2023-03-28T05:54:58.396Z,102737.50
2023-03-28T05:57:25.552Z,102732.16
2023-03-28T05:59:52.110Z,102734.72
2023-03-28T06:02:20.580Z,102740.06
2023-03-28T06:04:47.533Z,102726.66
2023-03-28T06:07:14.773Z,102730.19
2023-03-28T06:09:42.394Z,102730.19
2023-03-28T06:12:09.138Z,102730.09
2023-03-28T06:14:35.720Z,102729.13
2023-03-28T06:17:02.358Z,102731.59
2023-03-28T06:19:28.961Z,102728.78
2023-03-28T06:21:55.489Z,102735.78
2023-03-28T06:24:22.248Z,102738.34
2023-03-28T06:26:48.820Z,102737.38
2023-03-28T06:29:16.301Z,102733.81
2023-03-28T06:31:43.031Z,102733.81
2023-03-28T06:34:09.581Z,102736.50
2023-03-28T06:36:36.102Z,102732.97
2023-03-28T06:39:02.980Z,102739.19
2023-03-28T06:41:29.565Z,102740.03
2023-03-28T06:43:58.928Z,102741.16
2023-03-28T06:46:25.531Z,102737.59
2023-03-28T06:48:52.192Z,102740.28
2023-03-28T06:51:18.670Z,102743.06
2023-03-28T06:53:50.751Z,102742.34
2023-03-28T06:56:17.320Z,102741.56
2023-03-28T06:58:46.523Z,102739.88
2023-03-28T07:01:13.114Z,102742.56
2023-03-28T07:03:39.793Z,102740.00
2023-03-28T07:06:08.146Z,102744.38
2023-03-28T07:08:35.621Z,102740.84
2023-03-28T07:11:02.542Z,102747.16
2023-03-28T07:13:29.538Z,102748.13
2023-03-28T07:16:03.761Z,102739.22
2023-03-28T07:18:30.330Z,102743.75
2023-03-28T07:21:03.854Z,102745.44
2023-03-28T07:23:31.005Z,102749.84
2023-03-28T07:25:57.531Z,102744.47
2023-03-28T07:28:24.313Z,102748.03
2023-03-28T07:30:54.178Z,102757.81
2023-03-28T07:33:26.661Z,102749.75
2023-03-28T07:36:00.706Z,102751.59
2023-03-28T07:38:27.218Z,102745.34
2023-03-28T07:40:53.726Z,102740.84
2023-03-28T07:43:20.253Z,102749.75
2023-03-28T07:45:47.681Z,102744.38
2023-03-28T07:48:14.210Z,102744.25
2023-03-28T07:50:42.918Z,102746.94
2023-03-28T07:53:09.550Z,102748.66
2023-03-28T07:58:08.867Z,102752.22
2023-03-28T08:00:35.543Z,102750.38
2023-03-28T08:03:02.161Z,102752.84
2023-03-28T08:05:28.919Z,102744.78
2023-03-28T08:07:55.476Z,102745.66
2023-03-28T08:10:22.077Z,102738.34
2023-03-28T08:12:48.694Z,102737.28
2023-03-28T08:15:15.373Z,102737.03
2023-03-28T08:17:41.998Z,102729.72
2023-03-28T08:20:10.616Z,102732.19
2023-03-28T08:22:37.515Z,102724.78
2023-03-28T08:25:04.841Z,102722.72
2023-03-28T08:27:31.447Z,102720.69
2023-03-28T08:29:58.160Z,102727.69
2023-03-28T08:32:25.381Z,102728.31
2023-03-28T08:34:51.940Z,102729.94
2023-03-28T08:37:19.142Z,102732.50
2023-03-28T08:39:45.736Z,102733.13
2023-03-28T08:42:18.251Z,102729.47
2023-03-28T08:45:26.798Z,102731.94
2023-03-28T08:48:22.203Z,102727.19
2023-03-28T08:50:54.692Z,102732.44
2023-03-28T08:53:34.292Z,102725.13
2023-03-28T08:56:03.967Z,102736.75
2023-03-28T08:58:42.472Z,102736.59
2023-03-28T09:01:10.193Z,102724.16
2023-03-28T09:03:36.938Z,102725.97
2023-03-28T09:06:24.982Z,102719.75
2023-03-28T09:09:00.769Z,102725.13
2023-03-28T09:11:42.161Z,102720.69
2023-03-28T09:14:17.382Z,102727.81
2023-03-28T09:16:53.762Z,102726.22
2023-03-28T09:19:48.248Z,102728.88
2023-03-28T09:22:33.415Z,102727.06
2023-03-28T09:25:37.699Z,102717.28
2023-03-28T09:28:28.586Z,102718.28
2023-03-28T09:30:58.615Z,102716.44
2023-03-28T09:33:31.266Z,102702.38
2023-03-28T09:35:57.826Z,102705.06
2023-03-28T09:38:35.933Z,102703.34
2023-03-28T09:41:11.154Z,102707.75
2023-03-28T09:43:59.129Z,102708.72
2023-03-28T09:46:48.700Z,102699.78
2023-03-28T09:49:18.250Z,102706.75
2023-03-28T09:51:45.649Z,102694.31
2023-03-28T09:54:13.498Z,102694.19
2023-03-28T09:56:43.477Z,102681.59
2023-03-28T09:59:27.711Z,102671.09
2023-03-28T10:01:57.651Z,102679.91
2023-03-28T10:04:27.518Z,102670.97
2023-03-28T10:07:09.808Z,102662.91
2023-03-28T10:09:50.841Z,102661.31
2023-03-28T10:12:35.727Z,102664.84
2023-03-28T10:15:02.866Z,102657.66
2023-03-28T10:17:34.771Z,102649.72
2023-03-28T10:20:18.187Z,102643.59
2023-03-28T10:22:47.530Z,102648.97
2023-03-28T10:25:38.634Z,102648.34
2023-03-28T10:28:07.297Z,102660.81
2023-03-28T10:30:36.843Z,102641.16
2023-03-28T10:33:15.149Z,102637.59
2023-03-28T10:35:45.731Z,102640.78
2023-03-28T10:38:18.150Z,102633.22
2023-03-28T10:41:02.800Z,102636.44
2023-03-28T10:43:33.005Z,102620.81
2023-03-28T10:46:02.597Z,102617.06
2023-03-28T10:48:33.667Z,102619.41
2023-03-28T10:51:08.513Z,102616.34
2023-03-28T10:54:08.817Z,102608.91
2023-03-28T10:56:41.407Z,102599.63
2023-03-28T10:59:20.514Z,102591.31
2023-03-28T11:01:52.954Z,102593.75
2023-03-28T11:04:28.105Z,102582.06
2023-03-28T11:07:10.667Z,102583.75
2023-03-28T11:09:45.874Z,102578.88
2023-03-28T11:12:28.670Z,102568.59
2023-03-28T11:15:23.956Z,102575.44
2023-03-28T11:18:14.285Z,102570.59
2023-03-28T11:20:54.406Z,102565.56
2023-03-28T11:23:38.621Z,102568.88
2023-03-28T11:26:28.172Z,102560.34
2023-03-28T11:29:06.913Z,102566.22
2023-03-28T11:31:41.277Z,102553.47
2023-03-28T11:34:19.580Z,102548.84
2023-03-28T11:36:55.519Z,102540.78
2023-03-28T11:39:42.500Z,102546.16
2023-03-28T11:42:39.705Z,102548.22
2023-03-28T11:45:50.328Z,102540.31
2023-03-28T11:48:19.270Z,102545.91
2023-03-28T11:51:02.674Z,102528.53
2023-03-28T11:53:35.880Z,102512.75
2023-03-28T11:56:29.628Z,102517.53
2023-03-28T11:59:06.141Z,102509.97
2023-03-28T12:01:37.922Z,102506.75
2023-03-28T12:04:27.446Z,102508.25
2023-03-28T12:07:02.889Z,102502.13
2023-03-28T12:09:33.295Z,102508.47
2023-03-28T12:12:13.631Z,102496.25
2023-03-28T12:14:55.339Z,102494.41
2023-03-28T12:17:27.167Z,102492.44
2023-03-28T12:19:54.061Z,102485.28
2023-03-28T12:22:30.207Z,102491.72
2023-03-28T12:25:13.760Z,102477.69
2023-03-28T12:27:57.689Z,102469.63
2023-03-28T12:30:51.636Z,102472.31
2023-03-28T12:33:33.124Z,102460.56
2023-03-28T12:36:17.710Z,102463.25
2023-03-28T12:38:57.809Z,102460.56
2023-03-28T12:41:38.064Z,102440.75
2023-03-28T12:44:14.539Z,102437.50
2023-03-28T12:47:04.610Z,102441.25
2023-03-28T12:49:39.400Z,102451.28
2023-03-28T12:52:07.885Z,102454.09
2023-03-28T12:54:41.518Z,102449.56
2023-03-28T12:57:07.951Z,102442.34
2023-03-28T12:59:40.877Z,102435.28
2023-03-28T13:02:18.469Z,102432.59
2023-03-28T13:04:55.444Z,102433.44
2023-03-28T13:08:00.963Z,102429.19
2023-03-28T13:10:45.451Z,102430.88
2023-03-28T13:13:32.046Z,102425.38
2023-03-28T13:16:06.236Z,102409.38
2023-03-28T13:18:34.568Z,102414.75
2023-03-28T13:21:04.474Z,102401.41
2023-03-28T13:23:33.465Z,102397.03
2023-03-28T13:26:03.109Z,102392.78
2023-03-28T13:28:31.736Z,102383.84
2023-03-28T13:31:05.856Z,102381.91
2023-03-28T13:33:35.364Z,102374.69
2023-03-28T13:36:02.062Z,102370.16
2023-03-28T13:38:28.831Z,102368.31
2023-03-28T13:41:06.405Z,102359.41
2023-03-28T13:43:40.018Z,102358.56
2023-03-28T13:46:13.179Z,102362.22
2023-03-28T13:49:19.076Z,102355.25
2023-03-28T13:52:06.668Z,102350.63
2023-03-28T13:54:33.565Z,102355.25
2023-03-28T13:57:12.864Z,102354.53
2023-03-28T13:59:55.602Z,102350.13
2023-03-28T14:02:42.928Z,102329.50
2023-03-28T14:05:12.551Z,102335.47
2023-03-28T14:07:39.565Z,102324.72
2023-03-28T14:10:28.725Z,102318.47
2023-03-28T14:12:59.946Z,102315.56
2023-03-28T14:15:31.427Z,102315.41
2023-03-28T14:17:59.690Z,102306.41
2023-03-28T14:20:26.764Z,102301.13
2023-03-28T14:23:00.508Z,102302.13
2023-03-28T14:25:28.600Z,102291.38
2023-03-28T14:27:56.784Z,102291.38
2023-03-28T14:30:29.943Z,102284.28
2023-03-28T14:33:01.176Z,102276.22
2023-03-28T14:35:32.569Z,102278.91
2023-03-28T14:38:01.605Z,102273.78
2023-03-28T14:40:34.731Z,102280.16
2023-03-28T14:43:10.650Z,102264.25
2023-03-28T14:45:41.092Z,102260.72
2023-03-28T14:48:13.172Z,102249.97
2023-03-28T14:50:42.087Z,102245.44
2023-03-28T14:53:16.876Z,102234.72
2023-03-28T14:55:44.051Z,102235.56
2023-03-28T14:58:13.450Z,102243.63
2023-03-28T15:00:46.819Z,102235.69
2023-03-28T15:03:23.172Z,102241.91
2023-03-28T15:05:52.220Z,102236.41
2023-03-28T15:08:24.743Z,102239.00
2023-03-28T15:10:54.478Z,102223.81
2023-03-28T15:13:28.651Z,102225.56
2023-03-28T15:15:56.884Z,102211.25
2023-03-28T15:18:28.681Z,102209.66
2023-03-28T15:20:58.866Z,102207.84
2023-03-28T15:23:43.847Z,102205.28
2023-03-28T15:26:35.613Z,102210.13
2023-03-28T15:29:05.228Z,102203.97
2023-03-28T15:31:32.720Z,102202.50
2023-03-28T15:33:59.502Z,102198.06
2023-03-28T15:36:32.182Z,102193.75
2023-03-28T15:39:01.688Z,102187.56
2023-03-28T15:41:34.280Z,102189.53
2023-03-28T15:44:30.264Z,102188.75
2023-03-28T15:47:00.850Z,102185.25
2023-03-28T15:49:28.589Z,102171.13
2023-03-28T15:52:01.658Z,102174.75
2023-03-28T15:54:31.877Z,102180.31
2023-03-28T15:57:02.144Z,102184.13
2023-03-28T15:59:41.238Z,102174.69
2023-03-28T16:02:28.562Z,102178.53
2023-03-28T16:05:34.396Z,102176.03
2023-03-28T16:08:02.361Z,102172.63
2023-03-28T16:10:30.230Z,102171.34
2023-03-28T16:12:57.582Z,102175.66
2023-03-28T16:15:24.964Z,102171.13
2023-03-28T16:17:51.947Z,102169.16
2023-03-28T16:20:21.668Z,102164.00
2023-03-28T16:22:48.805Z,102158.78
2023-03-28T16:25:15.502Z,102161.56
2023-03-28T16:27:42.776Z,102158.19
2023-03-28T16:30:25.072Z,102162.00
2023-03-28T16:32:51.676Z,102155.75
2023-03-28T16:35:18.346Z,102152.34
2023-03-28T16:37:44.894Z,102147.25
2023-03-28T16:40:11.956Z,102140.28
2023-03-28T16:42:38.557Z,102149.47
2023-03-28T16:45:05.849Z,102134.47
2023-03-28T16:47:32.427Z,102136.31
2023-03-28T16:49:59.010Z,102128.50
2023-03-28T16:52:27.795Z,102116.16
2023-03-28T16:54:55.983Z,102123.53
2023-03-28T16:57:22.603Z,102118.56
2023-03-28T16:59:49.455Z,102119.94
2023-03-28T17:02:16.082Z,102127.59
2023-03-28T17:04:54.543Z,102114.66
2023-03-28T17:07:21.108Z,102103.44
2023-03-28T17:09:48.385Z,102097.47
2023-03-28T17:12:14.968Z,102085.44
2023-03-28T17:14:41.627Z,102086.69
2023-03-28T17:17:08.422Z,102087.69
2023-03-28T17:19:35.385Z,102079.72
2023-03-28T17:22:02.624Z,102087.09
2023-03-28T17:24:29.967Z,102081.13
2023-03-28T17:26:56.600Z,102085.78
2023-03-28T17:29:24.287Z,102073.88
2023-03-28T17:31:51.611Z,102074.22
2023-03-28T17:34:18.780Z,102073.78
2023-03-28T17:36:45.427Z,102086.38
2023-03-28T17:39:12.475Z,102078.56
2023-03-28T17:41:38.998Z,102073.34
2023-03-28T17:44:06.611Z,102074.34
2023-03-28T17:46:33.651Z,102067.13
2023-03-28T17:49:00.216Z,102050.84
2023-03-28T17:51:27.197Z,102050.84
2023-03-28T17:53:54.121Z,102041.78
2023-03-28T17:56:21.458Z,102038.97
2023-03-28T17:58:48.068Z,102047.03
2023-03-28T18:01:17.068Z,102049.72
2023-03-28T18:03:45.867Z,102051.41
2023-03-28T18:06:13.313Z,102040.66
2023-03-28T18:08:40.170Z,102045.03
2023-03-28T18:11:09.568Z,102044.94
2023-03-28T18:13:37.454Z,102057.38
2023-03-28T18:16:06.561Z,102051.16
2023-03-28T18:18:33.570Z,102060.06
2023-03-28T18:21:00.302Z,102052.00
2023-03-28T18:23:26.880Z,102060.06
2023-03-28T18:25:53.765Z,102052.00
2023-03-28T18:28:23.292Z,102057.38
2023-03-28T18:30:51.184Z,102047.75
2023-03-28T18:33:18.636Z,102051.41
2023-03-28T18:35:48.822Z,102047.03
2023-03-28T18:38:15.843Z,102036.41
2023-03-28T18:40:42.697Z,102029.31
2023-03-28T18:43:10.079Z,102036.69
2023-03-28T18:45:37.502Z,102036.69
2023-03-28T18:48:04.775Z,102034.09
2023-03-28T18:50:31.321Z,102028.72
2023-03-28T18:52:58.103Z,102022.66
2023-03-28T18:55:24.808Z,102017.28
2023-03-28T18:57:52.790Z,102003.94
2023-03-28T19:00:20.383Z,102003.09
2023-03-28T19:02:48.885Z,102004.09
2023-03-28T19:05:16.693Z,101999.72
2023-03-28T19:07:44.534Z,101995.28
2023-03-28T19:10:14.413Z,101995.44
2023-03-28T19:12:41.425Z,101991.91
2023-03-28T19:15:10.437Z,101993.75
2023-03-28T19:17:38.541Z,101990.22
2023-03-28T19:20:07.889Z,101985.78
2023-03-28T19:22:37.869Z,101976.88
2023-03-28T19:25:05.084Z,101979.56
2023-03-28T19:27:31.955Z,101971.66
2023-03-28T19:29:58.516Z,101966.44
2023-03-28T19:32:25.277Z,101964.69
2023-03-28T19:34:52.153Z,101960.47
2023-03-28T19:37:18.718Z,101961.00
2023-03-28T19:39:45.269Z,101962.09
2023-03-28T19:42:11.812Z,101963.34
2023-03-28T19:44:39.320Z,101963.75
2023-03-28T19:47:06.944Z,101965.84
2023-03-28T19:49:33.588Z,101966.13
2023-03-28T19:52:00.303Z,101959.19
2023-03-28T19:54:27.031Z,101956.91
2023-03-28T19:56:53.599Z,101958.75
2023-03-28T19:59:20.270Z,101958.16
2023-03-28T20:01:46.859Z,101960.09
2023-03-28T20:04:14.007Z,101975.50
2023-03-28T20:06:40.935Z,101961.34
2023-03-28T20:09:07.505Z,101956.25
2023-03-28T20:11:34.160Z,101951.84
2023-03-28T20:14:00.851Z,101963.59
2023-03-28T20:16:27.474Z,101968.97
2023-03-28T20:18:55.796Z,101965.28
2023-03-28T20:21:22.408Z,101954.53
2023-03-28T20:23:50.171Z,101943.94
2023-03-28T20:26:19.623Z,101939.66
2023-03-28T20:28:49.833Z,101933.59
2023-03-28T20:31:17.986Z,101930.16
2023-03-28T20:33:45.173Z,101926.88
2023-03-28T20:36:12.193Z,101924.31
2023-03-28T20:38:38.939Z,101925.56
2023-03-28T20:41:13.724Z,101930.34
2023-03-28T20:43:46.802Z,101943.06
2023-03-28T20:46:19.138Z,101941.47
2023-03-28T20:48:52.136Z,101922.94
2023-03-28T20:51:22.562Z,101926.03
2023-03-28T20:53:54.995Z,101912.84
2023-03-28T20:56:22.433Z,101915.94
2023-03-28T20:58:50.583Z,101923.53
2023-03-28T21:01:18.359Z,101908.66
2023-03-28T21:03:53.747Z,101908.22
2023-03-28T21:06:34.428Z,101906.75
2023-03-28T21:09:04.643Z,101901.66
2023-03-28T21:11:33.613Z,101893.84
2023-03-28T21:14:01.128Z,101899.47
2023-03-28T21:16:29.760Z,101892.66
2023-03-28T21:18:56.667Z,101894.63
2023-03-28T21:21:23.786Z,101886.97
2023-03-28T21:23:50.468Z,101881.00
2023-03-28T21:26:19.796Z,101884.06
2023-03-28T21:28:46.848Z,101891.50
2023-03-28T21:31:16.162Z,101884.56
2023-03-28T21:33:42.998Z,101885.66
2023-03-28T21:36:12.810Z,101892.16
2023-03-28T21:38:40.271Z,101891.53
2023-03-28T21:41:07.545Z,101885.44
2023-03-28T21:43:34.831Z,101883.00
2023-03-28T21:46:02.078Z,101880.44
2023-03-28T21:48:28.933Z,101885.19
2023-03-28T21:51:00.600Z,101872.91
2023-03-28T21:53:33.041Z,101877.53
2023-03-28T21:55:59.929Z,101875.00
2023-03-28T21:58:29.278Z,101881.44
2023-03-28T22:00:56.369Z,101880.72
2023-03-28T22:03:23.437Z,101881.81
2023-03-28T22:05:52.180Z,101881.09
2023-03-28T22:08:19.479Z,101876.84
2023-03-28T22:10:54.301Z,101876.09
2023-03-28T22:13:21.371Z,101872.56
2023-03-28T22:15:47.902Z,101867.47
2023-03-28T22:18:15.631Z,101873.94
2023-03-28T22:20:43.930Z,101867.81
2023-03-28T22:23:11.045Z,101865.28
2023-03-28T22:25:38.496Z,101853.84
2023-03-28T22:28:10.375Z,101853.84
2023-03-28T22:30:39.082Z,101842.38
2023-03-28T22:33:09.658Z,101829.22
2023-03-28T22:35:36.551Z,101835.72
2023-03-28T22:38:04.140Z,101834.00
2023-03-28T22:40:31.728Z,101826.09
2023-03-28T22:42:58.313Z,101823.53
2023-03-28T22:45:26.535Z,101820.97
2023-03-28T22:47:54.440Z,101809.41
2023-03-28T22:50:22.570Z,101814.75
2023-03-28T22:52:52.878Z,101809.53
2023-03-28T22:55:22.390Z,101782.84
2023-03-28T22:57:51.702Z,101790.03
2023-03-28T23:00:21.587Z,101796.38
2023-03-28T23:02:48.972Z,101797.38
2023-03-28T23:05:15.627Z,101785.81
2023-03-28T23:07:42.199Z,101792.13
2023-03-28T23:10:14.319Z,101784.22
2023-03-28T23:12:42.290Z,101778.00
2023-03-28T23:15:09.050Z,101779.84
2023-03-28T23:17:35.940Z,101776.31
2023-03-28T23:20:03.497Z,101772.75
2023-03-28T23:22:30.030Z,101764.72
2023-03-28T23:24:56.583Z,101762.19
2023-03-28T23:27:23.098Z,101763.16
2023-03-28T23:29:49.658Z,101753.44
2023-03-28T23:32:16.236Z,101757.91
2023-03-28T23:34:43.463Z,101747.34
2023-03-28T23:37:10.087Z,101738.47
2023-03-28T23:39:37.594Z,101740.41
2023-03-28T23:42:04.202Z,101729.69
2023-03-28T23:44:31.257Z,101719.94
2023-03-28T23:46:58.016Z,101726.28
2023-03-28T23:49:24.528Z,101719.25
2023-03-28T23:51:51.054Z,101718.50
2023-03-28T23:54:18.594Z,101720.34
2023-03-28T23:56:46.009Z,101722.16
2023-03-28T23:59:12.727Z,101719.59
